createdAt,value
2019-05-14T00:01:35.444Z,61.24
2019-05-14T00:04:06.836Z,61.07
2019-05-14T00:06:38.045Z,61.82
2019-05-14T00:09:09.373Z,62.17
2019-05-14T00:11:42.093Z,61.90
2019-05-14T00:14:13.627Z,62.38
2019-05-14T00:16:44.792Z,62.34
2019-05-14T00:19:15.976Z,62.73
2019-05-14T00:21:47.341Z,62.97
2019-05-14T00:24:18.600Z,63.56
2019-05-14T00:26:51.570Z,63.35
2019-05-14T00:29:22.760Z,63.24
2019-05-14T00:31:53.950Z,63.67
2019-05-14T00:34:25.197Z,64.74
2019-05-14T00:36:56.728Z,65.11
2019-05-14T00:39:27.981Z,65.26
2019-05-14T00:42:01.626Z,65.72
2019-05-14T00:44:32.468Z,65.60
2019-05-14T00:47:03.750Z,66.21
2019-05-14T00:49:35.029Z,65.78
2019-05-14T00:52:06.226Z,66.07
2019-05-14T00:54:38.762Z,66.37
2019-05-14T00:57:11.901Z,66.99
2019-05-14T00:59:42.827Z,67.23
2019-05-14T01:02:14.016Z,67.51
2019-05-14T01:04:45.289Z,67.66
2019-05-14T01:07:16.497Z,67.82
2019-05-14T01:09:47.707Z,68.13
2019-05-14T01:12:21.249Z,68.48
2019-05-14T01:15:06.662Z,68.08
2019-05-14T01:17:24.607Z,68.65
2019-05-14T01:19:55.790Z,68.41
2019-05-14T01:22:26.975Z,68.30
2019-05-14T01:24:58.254Z,68.55
2019-05-14T01:27:31.609Z,68.85
2019-05-14T01:30:02.441Z,68.59
2019-05-14T01:32:33.603Z,68.86
2019-05-14T01:35:05.238Z,69.24
2019-05-14T01:37:36.376Z,69.56
2019-05-14T01:40:08.429Z,70.42
2019-05-14T01:42:41.611Z,70.74
2019-05-14T01:45:24.231Z,71.23
2019-05-14T01:47:45.752Z,71.92
2019-05-14T01:50:17.629Z,71.72
2019-05-14T01:52:48.870Z,71.63
2019-05-14T01:55:21.882Z,72.10
2019-05-14T01:57:53.049Z,71.71
2019-05-14T02:00:24.607Z,71.65
2019-05-14T02:02:55.853Z,72.00
2019-05-14T02:05:27.104Z,72.46
2019-05-14T02:07:58.349Z,72.26
2019-05-14T02:10:31.515Z,72.19
2019-05-14T02:13:02.596Z,72.76
2019-05-14T02:15:39.025Z,73.06
2019-05-14T02:18:06.769Z,72.88
2019-05-14T02:20:38.125Z,72.88
2019-05-14T02:23:09.321Z,72.78
2019-05-14T02:25:41.255Z,72.85
2019-05-14T02:28:12.648Z,73.05
2019-05-14T02:30:52.559Z,73.28
2019-05-14T02:33:19.156Z,73.44
2019-05-14T02:35:49.667Z,73.60
2019-05-14T02:38:20.909Z,73.88
2019-05-14T02:40:52.191Z,73.96
2019-05-14T02:43:23.575Z,74.46
2019-05-14T02:46:09.565Z,74.88
2019-05-14T02:48:29.381Z,75.06
2019-05-14T02:51:00.864Z,75.09
2019-05-14T02:53:32.183Z,75.12
2019-05-14T02:56:03.304Z,74.56
2019-05-14T02:58:34.653Z,74.27
2019-05-14T03:01:09.255Z,73.91
2019-05-14T03:03:40.120Z,74.01
2019-05-14T03:06:11.884Z,74.16
2019-05-14T03:08:43.203Z,73.76
2019-05-14T03:11:14.692Z,73.34
2019-05-14T03:13:49.287Z,72.42
2019-05-14T03:16:30.017Z,72.09
2019-05-14T03:18:51.896Z,71.65
2019-05-14T03:21:23.311Z,71.74
2019-05-14T03:23:54.656Z,71.87
2019-05-14T03:26:28.638Z,72.34
2019-05-14T03:29:00.049Z,72.54
2019-05-14T03:31:33.508Z,72.77
2019-05-14T03:34:04.756Z,72.98
2019-05-14T03:36:36.170Z,72.96
2019-05-14T03:39:10.540Z,73.23
2019-05-14T03:41:42.090Z,73.27
2019-05-14T03:44:13.337Z,73.79
2019-05-14T03:46:54.315Z,73.51
2019-05-14T03:49:19.802Z,73.55
2019-05-14T03:51:50.715Z,73.80
2019-05-14T03:54:21.982Z,74.38
2019-05-14T03:56:53.215Z,74.46
2019-05-14T03:59:24.572Z,74.68
2019-05-14T04:01:59.502Z,74.51
2019-05-14T04:04:30.178Z,74.67
2019-05-14T04:07:04.501Z,74.68
2019-05-14T04:09:39.991Z,74.95
2019-05-14T04:12:10.787Z,74.76
2019-05-14T04:14:49.850Z,74.73
2019-05-14T04:17:32.351Z,74.96
2019-05-14T04:20:00.376Z,75.04
2019-05-14T04:22:34.679Z,74.79
2019-05-14T04:25:10.830Z,75.00
2019-05-14T04:27:44.438Z,74.72
2019-05-14T04:30:20.599Z,74.53
2019-05-14T04:32:52.673Z,74.81
2019-05-14T04:35:24.497Z,74.78
2019-05-14T04:37:58.693Z,74.51
2019-05-14T04:40:29.658Z,74.53
2019-05-14T04:43:01.147Z,74.17
2019-05-14T04:45:32.468Z,73.88
2019-05-14T04:48:21.441Z,74.05
2019-05-14T04:50:40.232Z,73.99
2019-05-14T04:53:10.072Z,73.59
2019-05-14T04:55:41.327Z,73.01
2019-05-14T04:58:12.513Z,73.14
2019-05-14T05:00:43.775Z,72.78
2019-05-14T05:03:15.018Z,72.72
2019-05-14T05:05:46.260Z,72.67
2019-05-14T05:08:19.939Z,72.26
2019-05-14T05:10:50.513Z,72.25
2019-05-14T05:13:21.798Z,72.74
2019-05-14T05:15:53.063Z,71.50
2019-05-14T05:18:24.351Z,71.53
2019-05-14T05:20:55.602Z,71.26
2019-05-14T05:23:28.276Z,70.79
2019-05-14T05:25:59.813Z,70.19
2019-05-14T05:28:35.498Z,70.58
2019-05-14T05:31:11.806Z,70.33
2019-05-14T05:33:46.125Z,70.19
2019-05-14T05:36:18.726Z,69.82
2019-05-14T05:38:49.975Z,69.47
2019-05-14T05:41:21.151Z,68.70
2019-05-14T05:43:52.395Z,66.19
2019-05-14T05:46:28.365Z,62.98
2019-05-14T05:49:00.131Z,59.66
2019-05-14T05:51:31.472Z,57.77
2019-05-14T05:54:02.644Z,56.73
2019-05-14T05:56:41.375Z,54.68
2019-05-14T05:59:12.658Z,53.49
2019-05-14T06:01:46.464Z,52.39
2019-05-14T06:04:18.184Z,49.17
2019-05-14T06:06:49.679Z,50.31
2019-05-14T06:09:20.912Z,51.65
2019-05-14T06:11:52.146Z,51.38
2019-05-14T06:14:23.358Z,49.67
2019-05-14T06:16:54.593Z,49.46
2019-05-14T06:19:25.884Z,48.19
2019-05-14T06:21:59.457Z,47.14
2019-05-14T06:24:30.092Z,47.27
2019-05-14T06:27:01.283Z,46.78
2019-05-14T06:29:32.437Z,46.71
2019-05-14T06:32:03.665Z,45.33
2019-05-14T06:34:38.246Z,47.71
2019-05-14T06:37:09.434Z,49.19
2019-05-14T06:39:40.684Z,48.02
2019-05-14T06:42:12.111Z,47.22
2019-05-14T06:44:43.244Z,46.67
2019-05-14T06:47:14.419Z,46.36
2019-05-14T06:49:45.657Z,45.26
2019-05-14T06:52:18.714Z,44.96
2019-05-14T06:54:49.901Z,46.37
2019-05-14T06:57:21.286Z,45.57
2019-05-14T06:59:53.137Z,45.12
2019-05-14T07:02:24.443Z,42.22
2019-05-14T07:04:55.700Z,42.27
2019-05-14T07:07:29.710Z,41.06
2019-05-14T07:09:59.840Z,43.18
2019-05-14T07:12:31.198Z,46.82
2019-05-14T07:15:02.371Z,46.87
2019-05-14T07:17:35.089Z,45.70
2019-05-14T07:20:08.863Z,46.89
2019-05-14T07:22:40.310Z,45.84
2019-05-14T07:25:12.340Z,46.07
2019-05-14T07:27:43.593Z,43.46
2019-05-14T07:30:15.540Z,43.04
2019-05-14T07:32:48.443Z,43.74
2019-05-14T07:35:20.775Z,44.43
2019-05-14T07:37:51.981Z,45.85
2019-05-14T07:40:23.242Z,47.51
2019-05-14T07:42:54.490Z,47.03
2019-05-14T07:45:25.796Z,45.09
2019-05-14T07:47:58.265Z,45.32
2019-05-14T07:50:29.580Z,44.67
2019-05-14T07:53:03.124Z,45.11
2019-05-14T07:55:33.779Z,44.69
2019-05-14T07:58:05.060Z,44.67
2019-05-14T08:00:36.407Z,44.75
2019-05-14T08:03:08.221Z,45.42
2019-05-14T08:05:42.599Z,46.19
2019-05-14T08:08:13.905Z,44.17
2019-05-14T08:10:45.183Z,43.92
2019-05-14T08:13:18.868Z,42.82
2019-05-14T08:15:49.301Z,41.87
2019-05-14T08:18:20.922Z,40.40
2019-05-14T08:20:52.187Z,41.14
2019-05-14T08:23:28.193Z,39.22
2019-05-14T08:26:03.718Z,41.63
2019-05-14T08:28:32.435Z,44.32
2019-05-14T08:31:03.669Z,43.02
2019-05-14T08:33:34.917Z,41.89
2019-05-14T08:36:06.175Z,42.49
2019-05-14T08:38:38.290Z,40.51
2019-05-14T08:41:10.009Z,39.28
2019-05-14T08:43:41.268Z,38.96
2019-05-14T08:46:12.468Z,38.49
2019-05-14T08:48:44.825Z,36.97
2019-05-14T08:51:18.496Z,37.75
2019-05-14T08:53:50.551Z,36.86
2019-05-14T08:56:22.033Z,39.05
2019-05-14T08:58:53.290Z,38.75
2019-05-14T09:01:24.853Z,36.25
2019-05-14T09:03:56.145Z,37.82
2019-05-14T09:06:28.993Z,37.52
2019-05-14T09:09:00.334Z,36.97
2019-05-14T09:11:35.411Z,35.29
2019-05-14T09:14:04.569Z,34.45
2019-05-14T09:16:42.756Z,34.66
2019-05-14T09:19:08.851Z,34.94
2019-05-14T09:21:40.152Z,35.59
2019-05-14T09:24:11.431Z,36.21
2019-05-14T09:26:42.700Z,36.84
2019-05-14T09:29:22.122Z,38.49
2019-05-14T09:31:49.751Z,39.62
2019-05-14T09:34:20.944Z,37.85
2019-05-14T09:36:52.159Z,35.14
2019-05-14T09:39:23.730Z,35.18
2019-05-14T09:41:54.996Z,34.41
2019-05-14T09:44:26.274Z,35.52
2019-05-14T09:46:59.398Z,36.20
2019-05-14T09:49:30.484Z,36.39
2019-05-14T09:52:05.418Z,35.78
2019-05-14T09:54:39.391Z,37.83
2019-05-14T09:57:09.567Z,37.28
2019-05-14T09:59:40.755Z,38.13
2019-05-14T10:02:11.992Z,37.38
2019-05-14T10:04:43.264Z,38.01
2019-05-14T10:07:15.731Z,37.80
2019-05-14T10:09:49.308Z,37.73
2019-05-14T10:12:20.342Z,37.38
2019-05-14T10:14:52.892Z,35.57
2019-05-14T10:17:24.140Z,37.02
2019-05-14T10:19:55.370Z,38.59
2019-05-14T10:22:28.565Z,37.90
2019-05-14T10:24:59.504Z,37.36
2019-05-14T10:27:30.739Z,37.63
2019-05-14T10:30:02.009Z,36.25
2019-05-14T10:32:33.269Z,36.68
2019-05-14T10:35:04.704Z,36.94
2019-05-14T10:37:35.871Z,36.31
2019-05-14T10:40:10.361Z,37.21
2019-05-14T10:42:41.402Z,36.84
2019-05-14T10:45:13.205Z,35.58
2019-05-14T10:47:44.445Z,37.23
2019-05-14T10:50:18.258Z,36.58
2019-05-14T10:52:49.283Z,35.20
2019-05-14T10:55:20.559Z,34.21
2019-05-14T10:58:02.430Z,33.87
2019-05-14T11:00:34.968Z,35.21
2019-05-14T11:03:06.131Z,36.63
2019-05-14T11:05:41.255Z,36.05
2019-05-14T11:08:11.899Z,35.86
2019-05-14T11:10:43.464Z,35.38
2019-05-14T11:13:14.809Z,34.38
2019-05-14T11:15:48.457Z,35.03
2019-05-14T11:18:19.937Z,35.03
2019-05-14T11:20:54.090Z,36.81
2019-05-14T11:23:25.324Z,34.84
2019-05-14T11:25:59.359Z,37.32
2019-05-14T11:28:30.610Z,37.81
2019-05-14T11:31:01.724Z,37.14
2019-05-14T11:33:33.396Z,37.43
2019-05-14T11:36:04.703Z,37.47
2019-05-14T11:38:37.579Z,37.09
2019-05-14T11:41:09.742Z,37.72
2019-05-14T11:43:41.162Z,35.87
2019-05-14T11:46:12.572Z,34.82
2019-05-14T11:48:43.866Z,36.08
2019-05-14T11:51:15.130Z,35.98
2019-05-14T11:53:49.224Z,35.70
2019-05-14T11:56:19.696Z,37.00
2019-05-14T11:58:51.214Z,36.10
2019-05-14T12:01:22.455Z,34.25
2019-05-14T12:03:54.828Z,34.68
2019-05-14T12:06:26.022Z,34.77
2019-05-14T12:08:58.828Z,35.19
2019-05-14T12:11:30.059Z,34.94
2019-05-14T12:14:01.335Z,34.93
2019-05-14T12:16:32.572Z,35.42
2019-05-14T12:19:03.799Z,35.11
2019-05-14T12:21:35.054Z,35.40
2019-05-14T12:24:08.668Z,35.98
2019-05-14T12:26:39.173Z,35.76
2019-05-14T12:29:10.378Z,34.49
2019-05-14T12:31:41.687Z,35.23
2019-05-14T12:34:12.913Z,35.22
2019-05-14T12:36:44.157Z,34.25
2019-05-14T12:39:15.410Z,35.26
2019-05-14T12:41:48.857Z,35.04
2019-05-14T12:44:19.757Z,34.56
2019-05-14T12:46:51.117Z,34.46
2019-05-14T12:49:22.356Z,34.28
2019-05-14T12:51:53.569Z,34.90
2019-05-14T12:54:24.870Z,35.50
2019-05-14T12:56:56.161Z,34.18
2019-05-14T12:59:28.539Z,34.80
2019-05-14T13:02:01.174Z,33.63
2019-05-14T13:04:32.447Z,33.98
2019-05-14T13:07:09.158Z,34.42
2019-05-14T13:09:39.894Z,34.20
2019-05-14T13:12:11.498Z,33.74
2019-05-14T13:14:43.414Z,33.50
2019-05-14T13:17:14.687Z,34.12
2019-05-14T13:19:45.878Z,34.88
2019-05-14T13:22:20.867Z,35.44
2019-05-14T13:24:49.962Z,35.65
2019-05-14T13:27:21.241Z,35.47
2019-05-14T13:29:52.940Z,34.98
2019-05-14T13:32:24.187Z,34.68
2019-05-14T13:35:13.601Z,34.44
2019-05-14T13:37:49.042Z,34.51
2019-05-14T13:40:28.425Z,34.19
2019-05-14T13:43:05.745Z,33.47
2019-05-14T13:45:39.105Z,33.01
2019-05-14T13:48:10.099Z,33.69
2019-05-14T13:50:41.405Z,33.72
2019-05-14T13:53:13.158Z,33.89
2019-05-14T13:55:47.863Z,33.97
2019-05-14T13:58:21.159Z,33.96
2019-05-14T14:00:53.634Z,33.46
2019-05-14T14:03:29.279Z,32.73
2019-05-14T14:06:00.903Z,32.61
2019-05-14T14:08:32.347Z,32.52
2019-05-14T14:11:04.430Z,33.12
2019-05-14T14:13:35.989Z,33.12
2019-05-14T14:16:13.724Z,32.61
2019-05-14T14:18:40.414Z,33.33
2019-05-14T14:21:12.055Z,33.09
2019-05-14T14:23:43.390Z,32.83
2019-05-14T14:26:14.910Z,33.35
2019-05-14T14:28:49.001Z,32.62
2019-05-14T14:31:19.192Z,32.87
2019-05-14T14:33:50.468Z,32.78
2019-05-14T14:36:21.649Z,31.97
2019-05-14T14:38:52.926Z,32.43
2019-05-14T14:41:24.164Z,31.72
2019-05-14T14:43:58.276Z,30.91
2019-05-14T14:46:29.505Z,30.17
2019-05-14T14:49:02.639Z,30.66
2019-05-14T14:51:33.583Z,30.91
2019-05-14T14:54:10.610Z,30.14
2019-05-14T14:56:38.022Z,29.48
2019-05-14T14:59:09.665Z,30.08
2019-05-14T15:01:40.917Z,31.90
2019-05-14T15:04:13.540Z,30.56
2019-05-14T15:06:45.265Z,30.46
2019-05-14T15:09:23.519Z,30.47
2019-05-14T15:12:05.640Z,30.15
2019-05-14T15:14:39.830Z,29.36
2019-05-14T15:17:12.752Z,29.61
2019-05-14T15:19:45.337Z,29.26
2019-05-14T15:22:21.008Z,28.89
2019-05-14T15:24:51.801Z,29.74
2019-05-14T15:27:24.069Z,30.58
2019-05-14T15:30:01.116Z,29.85
2019-05-14T15:32:34.437Z,30.90
2019-05-14T15:35:18.899Z,32.64
2019-05-14T15:37:51.006Z,32.80
2019-05-14T15:40:28.916Z,32.06
2019-05-14T15:43:01.977Z,30.15
2019-05-14T15:45:35.234Z,30.35
2019-05-14T15:48:09.026Z,28.76
2019-05-14T15:50:50.183Z,28.42
2019-05-14T15:53:31.276Z,27.97
2019-05-14T15:56:04.096Z,28.61
2019-05-14T15:58:38.756Z,28.57
2019-05-14T16:01:10.539Z,30.55
2019-05-14T16:03:41.943Z,29.78
2019-05-14T16:06:13.174Z,29.39
2019-05-14T16:08:44.430Z,30.53
2019-05-14T16:11:18.622Z,30.38
2019-05-14T16:13:50.096Z,31.08
2019-05-14T16:16:21.415Z,29.78
2019-05-14T16:18:52.639Z,29.89
2019-05-14T16:21:23.921Z,29.87
2019-05-14T16:23:55.150Z,30.52
2019-05-14T16:26:28.980Z,30.96
2019-05-14T16:28:59.481Z,30.05
2019-05-14T16:31:43.438Z,30.51
2019-05-14T16:34:12.753Z,30.28
2019-05-14T16:36:43.923Z,30.67
2019-05-14T16:39:21.790Z,30.95
2019-05-14T16:41:53.045Z,31.76
2019-05-14T16:44:24.332Z,31.79
2019-05-14T16:46:55.687Z,32.19
2019-05-14T16:49:29.407Z,32.21
2019-05-14T16:51:59.810Z,32.29
2019-05-14T16:54:32.720Z,32.30
2019-05-14T16:57:03.972Z,32.16
2019-05-14T16:59:39.303Z,32.44
2019-05-14T17:02:15.500Z,32.64
2019-05-14T17:04:48.296Z,33.24
2019-05-14T17:07:22.682Z,33.33
2019-05-14T17:09:59.553Z,32.95
2019-05-14T17:12:48.220Z,33.48
2019-05-14T17:15:18.147Z,33.51
2019-05-14T17:17:51.836Z,33.55
2019-05-14T17:20:29.432Z,33.68
2019-05-14T17:23:01.163Z,33.26
2019-05-14T17:25:39.198Z,32.89
2019-05-14T17:28:14.349Z,33.17
2019-05-14T17:30:55.543Z,33.71
2019-05-14T17:33:35.649Z,33.97
2019-05-14T17:36:09.671Z,33.86
2019-05-14T17:38:44.575Z,34.21
2019-05-14T17:41:19.497Z,33.94
2019-05-14T17:43:54.261Z,33.97
2019-05-14T17:46:29.400Z,33.89
2019-05-14T17:49:03.681Z,34.52
2019-05-14T17:51:39.281Z,34.86
2019-05-14T17:54:10.588Z,35.46
2019-05-14T17:56:45.789Z,35.17
2019-05-14T17:59:19.112Z,35.26
2019-05-14T18:01:50.181Z,35.53
2019-05-14T18:04:21.821Z,35.62
2019-05-14T18:07:01.305Z,35.54
2019-05-14T18:09:32.614Z,35.41
2019-05-14T18:12:15.437Z,35.13
2019-05-14T18:14:49.108Z,35.42
2019-05-14T18:17:29.594Z,35.51
2019-05-14T18:20:02.761Z,35.51
2019-05-14T18:22:42.647Z,35.82
2019-05-14T18:25:19.249Z,35.45
2019-05-14T18:27:50.549Z,35.82
2019-05-14T18:30:23.443Z,36.18
2019-05-14T18:32:54.784Z,36.47
2019-05-14T18:35:26.138Z,37.09
2019-05-14T18:37:57.383Z,36.46
2019-05-14T18:40:31.563Z,36.58
2019-05-14T18:43:08.448Z,37.80
2019-05-14T18:45:39.129Z,36.66
2019-05-14T18:48:10.497Z,37.82
2019-05-14T18:50:41.997Z,37.83
2019-05-14T18:53:16.201Z,38.25
2019-05-14T18:55:48.965Z,38.54
2019-05-14T18:58:30.902Z,39.15
2019-05-14T19:01:02.270Z,38.89
2019-05-14T19:03:49.209Z,39.29
2019-05-14T19:06:23.586Z,39.47
2019-05-14T19:08:55.087Z,39.77
2019-05-14T19:11:28.057Z,40.17
2019-05-14T19:13:59.483Z,41.43
2019-05-14T19:16:32.203Z,40.67
2019-05-14T19:19:03.414Z,41.39
2019-05-14T19:21:34.868Z,41.79
2019-05-14T19:24:10.054Z,42.40
2019-05-14T19:26:41.304Z,42.79
2019-05-14T19:29:12.690Z,43.49
2019-05-14T19:31:44.070Z,43.93
2019-05-14T19:34:15.284Z,43.94
2019-05-14T19:36:46.593Z,44.07
2019-05-14T19:39:25.112Z,44.25
2019-05-14T19:41:56.330Z,44.32
2019-05-14T19:44:29.626Z,44.86
2019-05-14T19:47:00.394Z,44.79
2019-05-14T19:49:34.416Z,44.58
2019-05-14T19:52:08.195Z,44.99
2019-05-14T19:54:41.007Z,45.08
2019-05-14T19:57:15.377Z,45.21
2019-05-14T19:59:49.258Z,45.92
2019-05-14T20:02:20.996Z,46.08
2019-05-14T20:04:52.450Z,45.96
2019-05-14T20:07:23.833Z,46.17
2019-05-14T20:09:55.095Z,46.53
2019-05-14T20:12:28.614Z,46.54
2019-05-14T20:15:03.076Z,46.73
2019-05-14T20:17:39.409Z,46.59
2019-05-14T20:20:10.996Z,46.87
2019-05-14T20:22:59.036Z,46.87
2019-05-14T20:25:30.268Z,46.95
2019-05-14T20:28:01.497Z,46.63
2019-05-14T20:30:34.220Z,46.81
2019-05-14T20:33:05.458Z,47.06
2019-05-14T20:35:40.526Z,47.04
2019-05-14T20:38:11.983Z,47.50
2019-05-14T20:40:49.405Z,47.35
2019-05-14T20:43:20.812Z,47.83
2019-05-14T20:45:52.138Z,48.21
2019-05-14T20:48:23.504Z,48.13
2019-05-14T20:50:57.851Z,48.02
2019-05-14T20:53:31.944Z,48.30
2019-05-14T20:56:03.148Z,48.55
2019-05-14T20:58:34.850Z,48.85
2019-05-14T21:01:11.172Z,49.00
2019-05-14T21:03:39.532Z,48.88
2019-05-14T21:06:10.904Z,48.99
2019-05-14T21:08:43.762Z,49.03
2019-05-14T21:11:15.169Z,48.78
2019-05-14T21:13:50.006Z,48.59
2019-05-14T21:16:19.484Z,48.83
2019-05-14T21:18:50.868Z,49.00
2019-05-14T21:21:22.216Z,49.17
2019-05-14T21:23:53.499Z,48.93
2019-05-14T21:26:24.882Z,49.20
2019-05-14T21:28:58.164Z,48.73
2019-05-14T21:31:29.172Z,48.75
2019-05-14T21:34:00.436Z,49.16
2019-05-14T21:36:31.775Z,49.33
2019-05-14T21:39:03.110Z,49.10
2019-05-14T21:41:34.420Z,49.48
2019-05-14T21:44:08.047Z,49.27
2019-05-14T21:46:39.852Z,49.23
2019-05-14T21:49:11.609Z,49.71
2019-05-14T21:51:44.035Z,49.70
2019-05-14T21:54:15.362Z,49.00
2019-05-14T21:56:49.363Z,49.63
2019-05-14T21:59:19.668Z,49.71
2019-05-14T22:01:51.030Z,49.20
2019-05-14T22:04:22.357Z,49.32
2019-05-14T22:06:53.721Z,49.56
2019-05-14T22:09:24.939Z,49.36
2019-05-14T22:11:58.212Z,48.89
2019-05-14T22:14:29.194Z,49.55
2019-05-14T22:17:00.536Z,49.64
2019-05-14T22:19:31.853Z,49.91
2019-05-14T22:22:03.289Z,48.41
2019-05-14T22:24:34.501Z,48.84
2019-05-14T22:27:05.811Z,49.34
2019-05-14T22:29:37.171Z,48.47
2019-05-14T22:32:08.464Z,48.73
2019-05-14T22:34:42.884Z,49.46
2019-05-14T22:37:14.183Z,49.10
2019-05-14T22:39:45.527Z,49.94
2019-05-14T22:42:18.725Z,50.01
2019-05-14T22:44:50.443Z,50.15
2019-05-14T22:47:21.854Z,50.60
2019-05-14T22:49:53.133Z,51.01
2019-05-14T22:52:24.444Z,51.71
2019-05-14T22:54:55.772Z,51.96
2019-05-14T22:57:30.897Z,52.40
2019-05-14T23:00:00.000Z,52.74
2019-05-14T23:02:31.284Z,53.21
2019-05-14T23:05:02.632Z,53.73
2019-05-14T23:07:33.952Z,54.02
2019-05-14T23:10:05.415Z,54.30
2019-05-14T23:12:38.470Z,54.51
2019-05-14T23:15:13.886Z,54.69
2019-05-14T23:17:45.158Z,55.38
2019-05-14T23:20:19.366Z,55.23
2019-05-14T23:22:49.793Z,55.42
2019-05-14T23:25:21.084Z,55.61
2019-05-14T23:27:52.350Z,55.74
2019-05-14T23:30:34.037Z,55.92
2019-05-14T23:33:19.348Z,56.01
2019-05-14T23:35:50.963Z,56.13
2019-05-14T23:38:22.260Z,56.33
2019-05-14T23:40:53.521Z,56.50
2019-05-14T23:43:24.828Z,56.67
2019-05-14T23:45:58.250Z,56.58
2019-05-14T23:48:29.050Z,57.08
2019-05-14T23:51:00.396Z,56.87
2019-05-14T23:53:31.686Z,57.26
2019-05-14T23:56:03.055Z,57.46
2019-05-14T23:58:34.217Z,57.02
